Погода Касиловичина неделю

Минская область, Белоруссия

23 - 29 июля
  • 23июля
    Сегодня
    +15°
    +27°
    Облачно с прояснениями
    ВремяПогодаТемператураВлажностьДавлениеВетер, м/сВероятность осадков
    00:00Ясно и безоблачно+18°C82 %742 мм0.9 м/с2 %
    03:00Ясно и безоблачно+16°C91 %742 мм1.7 м/с2 %
    06:00Ясно и безоблачно+15°C94 %742 мм1.2 м/с2 %
    09:00Ясно и безоблачно+21°C70 %743 мм1.8 м/с2 %
    12:00Ясно и безоблачно+25°C53 %742 мм2.3 м/с2 %
    15:00Облачно с прояснениями+26°C45 %742 мм1.9 м/с19 %
    18:00Небольшая облачность+26°C48 %742 мм2.4 м/с9 %
    21:00Практически безоблачно+22°C62 %742 мм1.9 м/с2 %
  • 24июля
    Среда
    +15°
    +26°
    Ясно и безоблачно
    ВремяПогодаТемператураВлажностьДавлениеВетер, м/сВероятность осадков
    00:00Небольшая облачность+19°C73 %741 мм2.3 м/с2 %
    03:00Практически безоблачно+16°C85 %742 мм1.8 м/с2 %
    06:00Ясно и безоблачно+16°C86 %741 мм2.2 м/с2 %
    09:00Практически безоблачно+20°C58 %741 мм2.6 м/с2 %
    12:00Ясно и безоблачно+24°C46 %741 мм2.6 м/с3 %
    15:00Ясно и безоблачно+26°C39 %740 мм2.7 м/с16 %
    18:00Облачно с прояснениями+26°C36 %740 мм2.9 м/с21 %
    21:00Облачно с прояснениями+22°C46 %740 мм3.2 м/с8 %
  • 25июля
    Четверг
    +14°
    +25°
    Облачно с прояснениями
    ВремяПогодаТемператураВлажностьДавлениеВетер, м/сВероятность осадков
    00:00Облачно с прояснениями+19°C63 %740 мм3.7 м/с3 %
    03:00Облачно с прояснениями+18°C61 %740 мм3.0 м/с4 %
    06:00Облачно с прояснениями+16°C68 %739 мм2.7 м/с4 %
    09:00Небольшая облачность+19°C54 %740 мм3.4 м/с6 %
    12:00Небольшая облачность+24°C35 %740 мм4.2 м/с7 %
    15:00Облачно с прояснениями+24°C35 %740 мм4.1 м/с7 %
    18:00Облачно с прояснениями+24°C35 %739 мм3.8 м/с7 %
    21:00Облачно с прояснениями+21°C45 %740 мм3.0 м/с6 %
  • 26июля
    Пятница
    +15°
    +27°
    Практически безоблачно
    ВремяПогодаТемператураВлажностьДавлениеВетер, м/сВероятность осадков
    00:00Пасмурно, сплошная облачность+18°C57 %740 мм3.0 м/с6 %
    03:00Облачно с прояснениями+16°C61 %740 мм2.8 м/с5 %
    06:00Небольшая облачность+15°C68 %741 мм2.8 м/с5 %
    09:00Ясно и безоблачно+21°C53 %742 мм3.0 м/с9 %
    12:00Практически безоблачно+24°C38 %742 мм2.6 м/с11 %
    15:00Практически безоблачно+26°C37 %743 мм1.5 м/с18 %
    18:00Ясно и безоблачно+26°C38 %743 мм0.9 м/с27 %
    21:00Ясно и безоблачно+23°C54 %744 мм1.4 м/с12 %
  • 27июля
    Суббота
    +18°
    +28°
    Практически безоблачно
    ВремяПогодаТемператураВлажностьДавлениеВетер, м/сВероятность осадков
    00:00Практически безоблачно+18°C64 %744 мм1.6 м/с7 %
    03:00Ясно и безоблачно+16°C75 %745 мм1.9 м/с13 %
    06:00Ясно и безоблачно+17°C74 %745 мм1.1 м/с10 %
    09:00Ясно и безоблачно+22°C60 %747 мм1.0 м/с9 %
    12:00Ясно и безоблачно+26°C40 %747 мм1.3 м/с21 %
    15:00Практически безоблачно+28°C37 %747 мм1.1 м/с29 %
    18:00Небольшая облачность и лёгкий дождик+28°C36 %747 мм1.6 м/с34 %
    21:00Практически безоблачно+24°C52 %747 мм1.7 м/с9 %
Мы используем cookies
Соглашаюсь